Terminal Aerodrome Forecast
Issued by NWS

Home | Current Version | Previous Version | Graphics & Text | Print | Product List | Glossary On
Versions: 1 2 3 4 5 6 7 8 9 10 11 12 13 14 15
000
FTUS42 KMHX 251137
TAFOAJ
TAF
KOAJ 251137Z 2512/2612 VRB04KT P6SM BKN200
     FM251900 VRB04KT P6SM VCTS SCT025 BKN050CB
     FM252300 VRB04KT P6SM BKN045
     FM260700 07005KT P6SM SCT200
      AMD LTD TO CLD VIS AND WIND=

USA.gov is the U.S. government's official web portal to all federal, state and local government web resources and services.